createdAt,value
2023-05-09T00:00:21.276Z,463.00
2023-05-09T00:01:21.237Z,463.00
2023-05-09T00:02:21.198Z,466.00
2023-05-09T00:03:21.198Z,470.00
2023-05-09T00:04:21.134Z,473.00
2023-05-09T00:05:21.047Z,468.00
2023-05-09T00:06:20.994Z,469.00
2023-05-09T00:07:20.932Z,467.00
2023-05-09T00:08:20.887Z,464.00
2023-05-09T00:09:20.845Z,465.00
2023-05-09T00:10:20.778Z,462.00
2023-05-09T00:11:20.737Z,462.00
2023-05-09T00:12:20.680Z,464.00
2023-05-09T00:13:20.664Z,463.00
2023-05-09T00:14:20.589Z,463.00
2023-05-09T00:15:20.608Z,459.00
2023-05-09T00:16:20.524Z,460.00
2023-05-09T00:17:20.460Z,461.00
2023-05-09T00:18:20.387Z,461.00
2023-05-09T00:19:20.413Z,462.00
2023-05-09T00:20:20.284Z,464.00
2023-05-09T00:21:20.236Z,464.00
2023-05-09T00:22:20.183Z,463.00
2023-05-09T00:23:20.142Z,464.00
2023-05-09T00:24:20.083Z,464.00
2023-05-09T00:25:20.042Z,461.00
2023-05-09T00:26:19.973Z,465.00
2023-05-09T00:27:19.956Z,463.00
2023-05-09T00:28:19.874Z,465.00
2023-05-09T00:29:19.833Z,465.00
2023-05-09T00:30:19.794Z,464.00
2023-05-09T00:31:19.825Z,465.00
2023-05-09T00:32:19.712Z,464.00
2023-05-09T00:33:19.651Z,466.00
2023-05-09T00:34:19.617Z,467.00
2023-05-09T00:35:19.590Z,467.00
2023-05-09T00:36:19.577Z,467.00
2023-05-09T00:37:19.566Z,465.00
2023-05-09T00:38:19.504Z,465.00
2023-05-09T00:39:19.479Z,464.00
2023-05-09T00:40:19.442Z,465.00
2023-05-09T00:41:19.422Z,467.00
2023-05-09T00:42:19.408Z,466.00
2023-05-09T00:43:19.377Z,465.00
2023-05-09T00:44:19.356Z,465.00
2023-05-09T00:45:19.333Z,465.00
2023-05-09T00:46:19.360Z,466.00
2023-05-09T00:47:19.365Z,466.00
2023-05-09T00:48:19.250Z,467.00
2023-05-09T00:49:19.226Z,468.00
2023-05-09T00:50:19.218Z,466.00
2023-05-09T00:51:19.193Z,483.00
2023-05-09T00:52:19.153Z,474.00
2023-05-09T00:53:19.109Z,476.00
2023-05-09T00:54:19.089Z,472.00
2023-05-09T00:55:19.028Z,469.00
2023-05-09T00:56:19.006Z,466.00
2023-05-09T00:57:18.975Z,464.00
2023-05-09T00:58:18.957Z,465.00
2023-05-09T00:59:18.922Z,470.00
2023-05-09T01:00:18.898Z,471.00
2023-05-09T01:01:18.924Z,469.00
2023-05-09T01:02:18.901Z,469.00
2023-05-09T01:03:19.047Z,466.00
2023-05-09T01:04:18.828Z,466.00
2023-05-09T01:05:18.798Z,466.00
2023-05-09T01:06:18.795Z,467.00
2023-05-09T01:07:18.769Z,464.00
2023-05-09T01:08:18.740Z,465.00
2023-05-09T01:09:18.728Z,466.00
2023-05-09T01:10:18.712Z,468.00
2023-05-09T01:11:18.691Z,467.00
2023-05-09T01:12:18.672Z,466.00
2023-05-09T01:13:18.714Z,465.00
2023-05-09T01:14:18.625Z,464.00
2023-05-09T01:15:18.628Z,465.00
2023-05-09T01:16:18.612Z,465.00
2023-05-09T01:17:18.568Z,467.00
2023-05-09T01:18:18.562Z,468.00
2023-05-09T01:19:18.638Z,467.00
2023-05-09T01:20:18.596Z,465.00
2023-05-09T01:21:18.510Z,464.00
2023-05-09T01:22:18.500Z,464.00
2023-05-09T01:23:18.491Z,464.00
2023-05-09T01:24:18.455Z,464.00
2023-05-09T01:25:18.436Z,461.00
2023-05-09T01:26:18.418Z,458.00
2023-05-09T01:27:18.403Z,458.00
2023-05-09T01:28:18.389Z,461.00
2023-05-09T01:29:18.365Z,461.00
2023-05-09T01:30:18.362Z,460.00
2023-05-09T01:31:18.349Z,460.00
2023-05-09T01:32:18.318Z,460.00
2023-05-09T01:33:18.310Z,458.00
2023-05-09T01:34:18.293Z,457.00
2023-05-09T01:35:18.361Z,457.00
2023-05-09T01:36:18.270Z,456.00
2023-05-09T01:37:18.239Z,457.00
2023-05-09T01:38:18.231Z,456.00
2023-05-09T01:39:18.216Z,457.00
2023-05-09T01:40:18.201Z,458.00
2023-05-09T01:41:18.206Z,457.00
2023-05-09T01:42:18.192Z,456.00
2023-05-09T01:43:18.184Z,454.00
2023-05-09T01:44:18.175Z,455.00
2023-05-09T01:45:18.230Z,454.00
2023-05-09T01:46:18.179Z,454.00
2023-05-09T01:47:18.135Z,451.00
2023-05-09T01:48:18.124Z,447.00
2023-05-09T01:49:18.133Z,448.00
2023-05-09T01:50:18.081Z,449.00
2023-05-09T01:51:18.154Z,446.00
2023-05-09T01:52:18.067Z,444.00
2023-05-09T01:53:18.058Z,444.00
2023-05-09T01:54:18.044Z,445.00
2023-05-09T01:55:18.061Z,444.00
2023-05-09T01:56:18.034Z,446.00
2023-05-09T01:57:18.047Z,448.00
2023-05-09T01:58:18.022Z,449.00
2023-05-09T01:59:18.022Z,447.00
2023-05-09T02:00:17.986Z,447.00
2023-05-09T02:01:18.042Z,447.00
2023-05-09T02:02:18.026Z,448.00
2023-05-09T02:03:18.027Z,446.00
2023-05-09T02:04:18.006Z,445.00
2023-05-09T02:05:18.030Z,448.00
2023-05-09T02:06:17.939Z,445.00
2023-05-09T02:07:17.991Z,446.00
2023-05-09T02:08:17.917Z,448.00
2023-05-09T02:09:17.908Z,449.00
2023-05-09T02:10:17.923Z,447.00
2023-05-09T02:11:17.908Z,450.00
2023-05-09T02:12:17.886Z,448.00
2023-05-09T02:13:18.048Z,446.00
2023-05-09T02:14:17.878Z,447.00
2023-05-09T02:15:17.877Z,450.00
2023-05-09T02:16:19.013Z,452.00
2023-05-09T02:17:17.867Z,451.00
2023-05-09T02:18:17.805Z,451.00
2023-05-09T02:19:17.801Z,452.00
2023-05-09T02:20:17.766Z,452.00
2023-05-09T02:21:17.798Z,451.00
2023-05-09T02:22:17.791Z,449.00
2023-05-09T02:23:17.835Z,448.00
2023-05-09T02:24:17.756Z,450.00
2023-05-09T02:25:17.737Z,454.00
2023-05-09T02:26:17.717Z,450.00
2023-05-09T02:27:17.711Z,453.00
2023-05-09T02:28:17.692Z,452.00
2023-05-09T02:29:17.692Z,449.00
2023-05-09T02:30:17.672Z,449.00
2023-05-09T02:31:17.681Z,450.00
2023-05-09T02:32:17.677Z,451.00
2023-05-09T02:33:17.656Z,453.00
2023-05-09T02:34:17.653Z,452.00
2023-05-09T02:35:17.636Z,449.00
2023-05-09T02:36:17.651Z,449.00
2023-05-09T02:37:17.636Z,452.00
2023-05-09T02:38:17.628Z,449.00
2023-05-09T02:39:17.681Z,451.00
2023-05-09T02:40:17.582Z,451.00
2023-05-09T02:41:17.591Z,451.00
2023-05-09T02:42:17.619Z,451.00
2023-05-09T02:43:17.601Z,453.00
2023-05-09T02:44:17.590Z,454.00
2023-05-09T02:45:17.568Z,452.00
2023-05-09T02:46:17.601Z,453.00
2023-05-09T02:47:17.576Z,453.00
2023-05-09T02:48:17.561Z,453.00
2023-05-09T02:49:31.628Z,451.00
2023-05-09T02:50:18.509Z,450.00
2023-05-09T02:51:17.462Z,450.00
2023-05-09T02:52:17.413Z,450.00
2023-05-09T02:53:17.366Z,450.00
2023-05-09T02:54:17.325Z,454.00
2023-05-09T02:55:17.567Z,455.00
2023-05-09T02:56:17.229Z,455.00
2023-05-09T02:57:17.251Z,453.00
2023-05-09T02:58:17.154Z,455.00
2023-05-09T02:59:17.109Z,453.00
2023-05-09T03:00:17.050Z,453.00
2023-05-09T03:01:17.021Z,455.00
2023-05-09T03:02:16.985Z,458.00
2023-05-09T03:03:17.122Z,460.00
2023-05-09T03:04:16.896Z,459.00
2023-05-09T03:05:16.953Z,455.00
2023-05-09T03:06:16.890Z,455.00
2023-05-09T03:07:16.884Z,458.00
2023-05-09T03:08:16.884Z,458.00
2023-05-09T03:09:16.873Z,457.00
2023-05-09T03:10:16.887Z,456.00
2023-05-09T03:11:16.942Z,455.00
2023-05-09T03:12:16.876Z,454.00
2023-05-09T03:13:16.914Z,454.00
2023-05-09T03:14:16.897Z,454.00
2023-05-09T03:15:16.897Z,452.00
2023-05-09T03:16:16.871Z,452.00
2023-05-09T03:17:16.870Z,451.00
2023-05-09T03:18:16.877Z,447.00
2023-05-09T03:19:16.838Z,446.00
2023-05-09T03:20:16.829Z,445.00
2023-05-09T03:21:16.829Z,446.00
2023-05-09T03:22:16.846Z,449.00
2023-05-09T03:23:16.845Z,451.00
2023-05-09T03:24:16.840Z,450.00
2023-05-09T03:25:17.121Z,448.00
2023-05-09T03:26:16.849Z,448.00
2023-05-09T03:27:16.907Z,446.00
2023-05-09T03:28:16.837Z,448.00
2023-05-09T03:29:16.810Z,447.00
2023-05-09T03:30:16.822Z,446.00
2023-05-09T03:31:16.837Z,448.00
2023-05-09T03:32:16.816Z,449.00
2023-05-09T03:33:16.823Z,449.00
2023-05-09T03:34:16.836Z,449.00
2023-05-09T03:35:16.950Z,448.00
2023-05-09T03:36:16.815Z,446.00
2023-05-09T03:37:16.805Z,450.00
2023-05-09T03:38:16.801Z,453.00
2023-05-09T03:39:16.812Z,455.00
2023-05-09T03:40:16.802Z,453.00
2023-05-09T03:41:16.807Z,454.00
2023-05-09T03:42:16.803Z,455.00
2023-05-09T03:43:16.866Z,457.00
2023-05-09T03:44:16.813Z,460.00
2023-05-09T03:45:16.869Z,460.00
2023-05-09T03:46:16.873Z,465.00
2023-05-09T03:47:16.868Z,465.00
2023-05-09T03:48:16.883Z,461.00
2023-05-09T03:49:16.897Z,458.00
2023-05-09T03:50:16.910Z,457.00
2023-05-09T03:51:16.921Z,457.00
2023-05-09T03:52:16.947Z,460.00
2023-05-09T03:53:16.945Z,459.00
2023-05-09T03:54:16.939Z,457.00
2023-05-09T03:55:16.988Z,454.00
2023-05-09T03:56:17.016Z,454.00
2023-05-09T03:57:16.945Z,454.00
2023-05-09T03:58:16.931Z,456.00
2023-05-09T03:59:17.007Z,456.00
2023-05-09T04:00:16.947Z,459.00
2023-05-09T04:01:16.928Z,459.00
2023-05-09T04:02:16.948Z,460.00
2023-05-09T04:03:16.978Z,464.00
2023-05-09T04:04:16.926Z,466.00
2023-05-09T04:05:17.267Z,467.00
2023-05-09T04:06:16.917Z,464.00
2023-05-09T04:07:16.935Z,461.00
2023-05-09T04:08:16.928Z,461.00
2023-05-09T04:09:16.920Z,459.00
2023-05-09T04:10:16.913Z,458.00
2023-05-09T04:11:16.920Z,458.00
2023-05-09T04:12:16.914Z,460.00
2023-05-09T04:13:16.992Z,459.00
2023-05-09T04:14:16.932Z,465.00
2023-05-09T04:15:17.103Z,467.00
2023-05-09T04:16:16.979Z,466.00
2023-05-09T04:17:16.960Z,467.00
2023-05-09T04:18:16.958Z,467.00
2023-05-09T04:19:16.974Z,467.00
2023-05-09T04:20:16.975Z,464.00
2023-05-09T04:21:16.977Z,465.00
2023-05-09T04:22:16.965Z,467.00
2023-05-09T04:23:16.967Z,466.00
2023-05-09T04:24:16.977Z,465.00
2023-05-09T04:25:17.136Z,465.00
2023-05-09T04:26:16.955Z,465.00
2023-05-09T04:27:16.953Z,465.00
2023-05-09T04:28:16.911Z,467.00
2023-05-09T04:29:16.919Z,465.00
2023-05-09T04:30:16.913Z,461.00
2023-05-09T04:31:17.035Z,461.00
2023-05-09T04:32:16.906Z,463.00
2023-05-09T04:33:16.850Z,465.00
2023-05-09T04:34:16.853Z,468.00
2023-05-09T04:35:18.889Z,467.00
2023-05-09T04:36:16.785Z,467.00
2023-05-09T04:37:16.754Z,467.00
2023-05-09T04:38:16.713Z,468.00
2023-05-09T04:39:16.668Z,466.00
2023-05-09T04:40:16.624Z,467.00
2023-05-09T04:41:16.562Z,466.00
2023-05-09T04:42:16.509Z,465.00
2023-05-09T04:43:16.477Z,464.00
2023-05-09T04:44:16.432Z,461.00
2023-05-09T04:45:16.570Z,462.00
2023-05-09T04:46:16.367Z,458.00
2023-05-09T04:47:16.379Z,460.00
2023-05-09T04:48:16.242Z,459.00
2023-05-09T04:49:16.200Z,460.00
2023-05-09T04:50:16.172Z,460.00
2023-05-09T04:51:16.128Z,458.00
2023-05-09T04:52:19.092Z,458.00
2023-05-09T04:53:16.291Z,458.00
2023-05-09T04:54:16.179Z,458.00
2023-05-09T04:55:16.394Z,459.00
2023-05-09T04:56:15.880Z,462.00
2023-05-09T04:57:18.597Z,464.00
2023-05-09T04:58:15.983Z,464.00
2023-05-09T04:59:16.000Z,459.00
2023-05-09T05:00:15.708Z,462.00
2023-05-09T05:01:16.566Z,460.00
2023-05-09T05:02:15.848Z,461.00
2023-05-09T05:03:15.648Z,462.00
2023-05-09T05:04:15.712Z,462.00
2023-05-09T05:05:15.486Z,461.00
2023-05-09T05:06:15.576Z,463.00
2023-05-09T05:07:15.576Z,464.00
2023-05-09T05:08:15.605Z,462.00
2023-05-09T05:09:15.847Z,463.00
2023-05-09T05:10:15.444Z,466.00
2023-05-09T05:11:15.261Z,466.00
2023-05-09T05:12:15.268Z,462.00
2023-05-09T05:13:15.261Z,461.00
2023-05-09T05:14:15.182Z,458.00
2023-05-09T05:15:15.416Z,458.00
2023-05-09T05:16:15.117Z,460.00
2023-05-09T05:17:15.078Z,460.00
2023-05-09T05:18:15.032Z,460.00
2023-05-09T05:19:15.072Z,459.00
2023-05-09T05:20:14.991Z,456.00
2023-05-09T05:21:14.951Z,455.00
2023-05-09T05:22:14.964Z,454.00
2023-05-09T05:23:14.872Z,454.00
2023-05-09T05:24:14.866Z,458.00
2023-05-09T05:25:15.228Z,457.00
2023-05-09T05:26:14.785Z,457.00
2023-05-09T05:27:14.740Z,456.00
2023-05-09T05:28:14.693Z,456.00
2023-05-09T05:29:14.649Z,456.00
2023-05-09T05:30:14.595Z,458.00
2023-05-09T05:31:14.598Z,458.00
2023-05-09T05:32:14.629Z,461.00
2023-05-09T05:33:14.603Z,461.00
2023-05-09T05:34:14.613Z,461.00
2023-05-09T05:35:15.080Z,461.00
2023-05-09T05:36:14.620Z,461.00
2023-05-09T05:37:14.631Z,461.00
2023-05-09T05:38:14.609Z,462.00
2023-05-09T05:39:14.618Z,462.00
2023-05-09T05:40:14.613Z,460.00
2023-05-09T05:41:14.609Z,459.00
2023-05-09T05:42:14.610Z,458.00
2023-05-09T05:43:14.600Z,460.00
2023-05-09T05:44:14.647Z,460.00
2023-05-09T05:45:14.765Z,460.00
2023-05-09T05:46:14.588Z,460.00
2023-05-09T05:47:14.563Z,460.00
2023-05-09T05:48:14.568Z,458.00
2023-05-09T05:49:14.550Z,457.00
2023-05-09T05:50:14.589Z,459.00
2023-05-09T05:51:14.627Z,459.00
2023-05-09T05:52:14.614Z,460.00
2023-05-09T05:53:14.535Z,462.00
2023-05-09T05:54:14.549Z,461.00
2023-05-09T05:55:14.758Z,458.00
2023-05-09T05:56:14.502Z,457.00
2023-05-09T05:57:15.109Z,454.00
2023-05-09T05:58:14.469Z,454.00
2023-05-09T05:59:14.461Z,454.00
2023-05-09T06:00:14.459Z,456.00
2023-05-09T06:01:14.483Z,456.00
2023-05-09T06:02:14.469Z,455.00
2023-05-09T06:03:14.512Z,454.00
2023-05-09T06:04:14.477Z,454.00
2023-05-09T06:05:14.555Z,456.00
2023-05-09T06:06:14.373Z,458.00
2023-05-09T06:07:14.407Z,458.00
2023-05-09T06:08:14.349Z,456.00
2023-05-09T06:09:14.303Z,458.00
2023-05-09T06:10:14.282Z,457.00
2023-05-09T06:11:14.250Z,455.00
2023-05-09T06:12:14.245Z,455.00
2023-05-09T06:13:14.235Z,456.00
2023-05-09T06:14:14.208Z,458.00
2023-05-09T06:15:14.230Z,457.00
2023-05-09T06:16:19.190Z,461.00
2023-05-09T06:17:15.101Z,461.00
2023-05-09T06:18:14.010Z,460.00
2023-05-09T06:19:13.957Z,458.00
2023-05-09T06:20:13.960Z,458.00
2023-05-09T06:21:13.859Z,459.00
2023-05-09T06:22:13.821Z,459.00
2023-05-09T06:23:13.856Z,458.00
2023-05-09T06:24:23.445Z,461.00
2023-05-09T06:25:14.895Z,459.00
2023-05-09T06:26:13.632Z,455.00
2023-05-09T06:27:13.592Z,456.00
2023-05-09T06:28:13.547Z,455.00
2023-05-09T06:29:13.497Z,454.00
2023-05-09T06:30:24.621Z,454.00
2023-05-09T06:31:14.457Z,455.00
2023-05-09T06:32:13.369Z,450.00
2023-05-09T06:33:13.320Z,453.00
2023-05-09T06:34:13.260Z,452.00
2023-05-09T06:35:13.537Z,454.00
2023-05-09T06:36:13.227Z,454.00
2023-05-09T06:37:13.117Z,452.00
2023-05-09T06:38:13.054Z,453.00
2023-05-09T06:39:13.091Z,453.00
2023-05-09T06:40:13.730Z,454.00
2023-05-09T06:41:12.902Z,452.00
2023-05-09T06:42:12.851Z,452.00
2023-05-09T06:43:12.772Z,453.00
2023-05-09T06:44:12.711Z,454.00
2023-05-09T06:45:12.839Z,451.00
2023-05-09T06:46:12.630Z,449.00
2023-05-09T06:47:12.554Z,451.00
2023-05-09T06:48:12.519Z,453.00
2023-05-09T06:49:12.440Z,453.00
2023-05-09T06:50:12.395Z,453.00
2023-05-09T06:51:12.350Z,451.00
2023-05-09T06:52:12.282Z,451.00
2023-05-09T06:53:12.236Z,449.00
2023-05-09T06:54:13.126Z,446.00
2023-05-09T06:55:12.369Z,446.00
2023-05-09T06:56:12.071Z,447.00
2023-05-09T06:57:12.020Z,444.00
2023-05-09T06:58:11.946Z,443.00
2023-05-09T06:59:11.890Z,437.00
2023-05-09T07:00:11.829Z,438.00
2023-05-09T07:01:11.815Z,437.00
2023-05-09T07:02:11.727Z,439.00
2023-05-09T07:03:11.741Z,440.00
2023-05-09T07:04:11.622Z,440.00
2023-05-09T07:05:11.710Z,441.00
2023-05-09T07:06:11.582Z,443.00
2023-05-09T07:07:11.530Z,445.00
2023-05-09T07:08:11.465Z,447.00
2023-05-09T07:09:11.439Z,448.00
2023-05-09T07:10:12.533Z,448.00
2023-05-09T07:11:11.413Z,447.00
2023-05-09T07:12:11.304Z,447.00
2023-05-09T07:13:11.306Z,446.00
2023-05-09T07:14:11.224Z,444.00
2023-05-09T07:15:11.427Z,443.00
2023-05-09T07:16:11.277Z,444.00
2023-05-09T07:17:22.697Z,443.00
2023-05-09T07:18:12.142Z,443.00
2023-05-09T07:19:11.023Z,443.00
2023-05-09T07:20:10.997Z,444.00
2023-05-09T07:21:10.920Z,443.00
2023-05-09T07:22:10.888Z,439.00
2023-05-09T07:23:10.807Z,439.00
2023-05-09T07:24:10.759Z,436.00
2023-05-09T07:25:10.695Z,437.00
2023-05-09T07:26:10.627Z,436.00
2023-05-09T07:27:10.644Z,434.00
2023-05-09T07:28:10.519Z,437.00
2023-05-09T07:29:10.485Z,435.00
2023-05-09T07:30:10.402Z,433.00
2023-05-09T07:31:10.355Z,437.00
2023-05-09T07:32:10.415Z,438.00
2023-05-09T07:33:10.278Z,437.00
2023-05-09T07:34:10.211Z,438.00
2023-05-09T07:35:10.129Z,428.00
2023-05-09T07:36:10.074Z,431.00
2023-05-09T07:37:10.038Z,432.00
2023-05-09T07:38:10.030Z,435.00
2023-05-09T07:39:09.999Z,435.00
2023-05-09T07:40:09.928Z,435.00
2023-05-09T07:41:09.879Z,437.00
2023-05-09T07:42:09.854Z,436.00
2023-05-09T07:43:09.911Z,438.00
2023-05-09T07:44:09.905Z,435.00
2023-05-09T07:45:10.643Z,436.00
2023-05-09T07:46:10.761Z,437.00
2023-05-09T07:47:09.851Z,437.00
2023-05-09T07:48:09.877Z,439.00
2023-05-09T07:49:09.867Z,441.00
2023-05-09T07:50:09.841Z,441.00
2023-05-09T07:51:09.784Z,440.00
2023-05-09T07:52:09.719Z,440.00
2023-05-09T07:53:09.708Z,444.00
2023-05-09T07:54:09.730Z,443.00
2023-05-09T07:55:09.753Z,445.00
2023-05-09T07:56:09.719Z,445.00
2023-05-09T07:57:10.235Z,441.00
2023-05-09T07:58:09.772Z,434.00
2023-05-09T07:59:09.779Z,434.00
2023-05-09T08:00:09.720Z,436.00
2023-05-09T08:01:09.688Z,441.00
2023-05-09T08:02:09.743Z,440.00
2023-05-09T08:03:09.926Z,432.00
2023-05-09T08:04:09.742Z,441.00
2023-05-09T08:05:09.652Z,442.00
2023-05-09T08:06:09.654Z,442.00
2023-05-09T08:07:09.660Z,441.00
2023-05-09T08:08:09.634Z,440.00
2023-05-09T08:09:09.624Z,437.00
2023-05-09T08:10:09.597Z,436.00
2023-05-09T08:11:09.681Z,435.00
2023-05-09T08:12:09.830Z,436.00
2023-05-09T08:13:09.974Z,434.00
2023-05-09T08:14:10.132Z,431.00
2023-05-09T08:15:11.386Z,432.00
2023-05-09T08:16:10.268Z,429.00
2023-05-09T08:17:10.231Z,429.00
2023-05-09T08:18:10.208Z,430.00
2023-05-09T08:19:10.158Z,430.00
2023-05-09T08:20:12.748Z,426.00
2023-05-09T08:21:10.056Z,426.00
2023-05-09T08:22:10.949Z,423.00
2023-05-09T08:23:09.894Z,429.00
2023-05-09T08:24:09.792Z,435.00
2023-05-09T08:25:09.696Z,437.00
2023-05-09T08:26:09.632Z,438.00
2023-05-09T08:27:09.535Z,437.00
2023-05-09T08:28:09.488Z,429.00
2023-05-09T08:29:09.413Z,438.00
2023-05-09T08:30:09.330Z,437.00
2023-05-09T08:31:09.358Z,438.00
2023-05-09T08:32:09.244Z,439.00
2023-05-09T08:33:09.261Z,440.00
2023-05-09T08:34:09.151Z,441.00
2023-05-09T08:35:09.283Z,440.00
2023-05-09T08:36:09.445Z,439.00
2023-05-09T08:37:09.547Z,436.00
2023-05-09T08:38:09.667Z,437.00
2023-05-09T08:39:09.784Z,440.00
2023-05-09T08:40:09.970Z,440.00
2023-05-09T08:41:10.093Z,442.00
2023-05-09T08:42:10.213Z,439.00
2023-05-09T08:43:10.325Z,431.00
2023-05-09T08:44:10.462Z,433.00
2023-05-09T08:45:11.314Z,437.00
2023-05-09T08:46:10.639Z,444.00
2023-05-09T08:47:10.589Z,443.00
2023-05-09T08:48:10.461Z,444.00
2023-05-09T08:49:10.403Z,439.00
2023-05-09T08:50:10.338Z,439.00
2023-05-09T08:51:10.276Z,434.00
2023-05-09T08:52:10.200Z,432.00
2023-05-09T08:53:10.142Z,430.00
2023-05-09T08:54:10.050Z,431.00
2023-05-09T08:55:10.073Z,438.00
2023-05-09T08:56:10.000Z,436.00
2023-05-09T08:57:09.907Z,433.00
2023-05-09T08:58:10.666Z,434.00
2023-05-09T08:59:09.760Z,430.00
2023-05-09T09:00:09.648Z,431.00
2023-05-09T09:01:09.633Z,406.00
2023-05-09T09:02:09.751Z,428.00
2023-05-09T09:03:10.847Z,429.00
2023-05-09T09:04:10.667Z,429.00
2023-05-09T09:05:19.659Z,429.00
2023-05-09T09:06:10.543Z,425.00
2023-05-09T09:07:09.445Z,428.00
2023-05-09T09:08:09.344Z,419.00
2023-05-09T09:09:09.308Z,421.00
2023-05-09T09:10:09.250Z,420.00
2023-05-09T09:11:09.165Z,422.00
2023-05-09T09:12:09.064Z,420.00
2023-05-09T09:13:09.020Z,422.00
2023-05-09T09:14:08.884Z,428.00
2023-05-09T09:15:08.838Z,423.00
2023-05-09T09:16:08.712Z,424.00
2023-05-09T09:17:08.574Z,422.00
2023-05-09T09:18:08.508Z,426.00
2023-05-09T09:19:08.446Z,426.00
2023-05-09T09:20:08.289Z,427.00
2023-05-09T09:21:08.145Z,427.00
2023-05-09T09:22:08.038Z,426.00
2023-05-09T09:23:07.950Z,428.00
2023-05-09T09:24:07.917Z,422.00
2023-05-09T09:25:08.051Z,426.00
2023-05-09T09:26:08.179Z,424.00
2023-05-09T09:27:08.285Z,426.00
2023-05-09T09:28:08.427Z,427.00
2023-05-09T09:29:08.521Z,428.00
2023-05-09T09:30:08.609Z,429.00
2023-05-09T09:31:08.719Z,428.00
2023-05-09T09:32:08.974Z,427.00
2023-05-09T09:33:09.090Z,425.00
2023-05-09T09:34:08.990Z,425.00
2023-05-09T09:35:09.217Z,424.00
2023-05-09T09:36:09.222Z,414.00
2023-05-09T09:37:09.362Z,417.00
2023-05-09T09:38:09.474Z,421.00
2023-05-09T09:39:09.605Z,425.00
2023-05-09T09:40:09.727Z,430.00
2023-05-09T09:41:09.859Z,430.00
2023-05-09T09:42:09.991Z,431.00
2023-05-09T09:43:10.104Z,431.00
2023-05-09T09:44:10.209Z,431.00
2023-05-09T09:45:10.314Z,432.00
2023-05-09T09:46:10.445Z,429.00
2023-05-09T09:47:10.586Z,428.00
2023-05-09T09:48:10.634Z,429.00
2023-05-09T09:49:10.690Z,428.00
2023-05-09T09:50:10.773Z,426.00
2023-05-09T09:51:10.926Z,425.00
2023-05-09T09:52:10.957Z,416.00
2023-05-09T09:53:11.041Z,422.00
2023-05-09T09:54:11.147Z,424.00
2023-05-09T09:55:11.229Z,424.00
2023-05-09T09:56:11.376Z,424.00
2023-05-09T09:57:11.446Z,425.00
2023-05-09T09:58:11.571Z,421.00
2023-05-09T09:59:11.684Z,427.00
2023-05-09T10:00:11.807Z,429.00
2023-05-09T10:01:11.940Z,432.00
2023-05-09T10:02:12.013Z,433.00
2023-05-09T10:03:12.137Z,432.00
2023-05-09T10:04:12.240Z,433.00
2023-05-09T10:05:12.269Z,433.00
2023-05-09T10:06:12.347Z,432.00
2023-05-09T10:07:14.912Z,430.00
2023-05-09T10:08:12.319Z,433.00
2023-05-09T10:09:12.220Z,435.00
2023-05-09T10:10:12.143Z,435.00
2023-05-09T10:11:11.969Z,438.00
2023-05-09T10:12:11.856Z,438.00
2023-05-09T10:13:11.759Z,434.00
2023-05-09T10:14:11.602Z,426.00
2023-05-09T10:15:11.490Z,436.00
2023-05-09T10:16:11.443Z,435.00
2023-05-09T10:17:11.344Z,433.00
2023-05-09T10:18:11.213Z,434.00
2023-05-09T10:19:11.014Z,435.00
2023-05-09T10:20:10.889Z,432.00
2023-05-09T10:21:10.772Z,428.00
2023-05-09T10:22:10.633Z,426.00
2023-05-09T10:23:10.598Z,424.00
2023-05-09T10:24:10.386Z,426.00
2023-05-09T10:25:10.270Z,426.00
2023-05-09T10:26:10.159Z,427.00
2023-05-09T10:27:10.038Z,432.00
2023-05-09T10:28:09.912Z,428.00
2023-05-09T10:29:09.798Z,426.00
2023-05-09T10:30:09.736Z,427.00
2023-05-09T10:31:09.565Z,426.00
2023-05-09T10:32:09.426Z,425.00
2023-05-09T10:33:09.375Z,425.00
2023-05-09T10:34:09.229Z,427.00
2023-05-09T10:35:09.086Z,426.00
2023-05-09T10:36:08.966Z,427.00
2023-05-09T10:37:08.863Z,427.00
2023-05-09T10:38:08.756Z,429.00
2023-05-09T10:39:08.732Z,422.00
2023-05-09T10:40:08.538Z,429.00
2023-05-09T10:41:08.434Z,425.00
2023-05-09T10:42:08.297Z,427.00
2023-05-09T10:43:08.303Z,428.00
2023-05-09T10:44:09.075Z,424.00
2023-05-09T10:45:07.945Z,423.00
2023-05-09T10:46:07.877Z,423.00
2023-05-09T10:47:07.742Z,422.00
2023-05-09T10:48:07.605Z,419.00
2023-05-09T10:49:07.493Z,424.00
2023-05-09T10:50:07.409Z,426.00
2023-05-09T10:51:07.279Z,428.00
2023-05-09T10:52:07.217Z,428.00
2023-05-09T10:53:07.351Z,431.00
2023-05-09T10:54:07.453Z,421.00
2023-05-09T10:55:07.622Z,425.00
2023-05-09T10:56:07.679Z,425.00
2023-05-09T10:57:07.760Z,429.00
2023-05-09T10:58:07.869Z,428.00
2023-05-09T10:59:07.964Z,437.00
2023-05-09T11:00:08.065Z,426.00
2023-05-09T11:01:08.203Z,423.00
2023-05-09T11:02:08.277Z,425.00
2023-05-09T11:03:08.453Z,426.00
2023-05-09T11:04:08.466Z,426.00
2023-05-09T11:05:08.653Z,425.00
2023-05-09T11:06:08.649Z,424.00
2023-05-09T11:07:08.741Z,425.00
2023-05-09T11:08:08.967Z,423.00
2023-05-09T11:09:08.978Z,423.00
2023-05-09T11:10:09.092Z,425.00
2023-05-09T11:11:09.296Z,423.00
2023-05-09T11:12:09.498Z,423.00
2023-05-09T11:13:09.547Z,420.00
2023-05-09T11:14:09.539Z,420.00
2023-05-09T11:15:09.715Z,419.00
2023-05-09T11:16:09.785Z,416.00
2023-05-09T11:17:09.945Z,422.00
2023-05-09T11:18:10.011Z,422.00
2023-05-09T11:19:11.858Z,418.00
2023-05-09T11:20:10.118Z,417.00
2023-05-09T11:21:10.007Z,418.00
2023-05-09T11:22:09.838Z,418.00
2023-05-09T11:23:09.806Z,418.00
2023-05-09T11:24:09.819Z,418.00
2023-05-09T11:25:09.605Z,415.00
2023-05-09T11:26:09.605Z,427.00
2023-05-09T11:27:09.464Z,423.00
2023-05-09T11:28:09.383Z,422.00
2023-05-09T11:29:09.283Z,420.00
2023-05-09T11:30:09.226Z,427.00
2023-05-09T11:31:09.159Z,417.00
2023-05-09T11:32:09.096Z,420.00
2023-05-09T11:33:08.934Z,418.00
2023-05-09T11:34:08.835Z,420.00
2023-05-09T11:35:08.756Z,422.00
2023-05-09T11:36:08.690Z,423.00
2023-05-09T11:37:08.557Z,421.00
2023-05-09T11:38:08.479Z,418.00
2023-05-09T11:39:08.423Z,419.00
2023-05-09T11:40:08.271Z,419.00
2023-05-09T11:41:08.154Z,422.00
2023-05-09T11:42:08.040Z,422.00
2023-05-09T11:43:07.972Z,421.00
2023-05-09T11:44:07.888Z,425.00
2023-05-09T11:45:07.937Z,424.00
2023-05-09T11:46:07.809Z,420.00
2023-05-09T11:47:07.651Z,420.00
2023-05-09T11:48:07.613Z,419.00
2023-05-09T11:49:07.790Z,424.00
2023-05-09T11:50:07.317Z,425.00
2023-05-09T11:51:07.272Z,421.00
2023-05-09T11:52:07.328Z,421.00
2023-05-09T11:53:07.491Z,425.00
2023-05-09T11:54:07.514Z,424.00
2023-05-09T11:55:08.022Z,424.00
2023-05-09T11:56:07.546Z,421.00
2023-05-09T11:57:07.410Z,422.00
2023-05-09T11:58:07.310Z,423.00
2023-05-09T11:59:07.241Z,425.00
2023-05-09T12:00:07.045Z,426.00
2023-05-09T12:01:06.923Z,426.00
2023-05-09T12:02:06.797Z,430.00
2023-05-09T12:03:06.813Z,428.00
2023-05-09T12:04:06.596Z,437.00
2023-05-09T12:05:06.346Z,430.00
2023-05-09T12:06:06.183Z,431.00
2023-05-09T12:07:06.020Z,427.00
2023-05-09T12:08:06.769Z,424.00
2023-05-09T12:09:05.723Z,422.00
2023-05-09T12:10:05.574Z,424.00
2023-05-09T12:11:05.411Z,422.00
2023-05-09T12:12:05.269Z,422.00
2023-05-09T12:13:05.128Z,423.00
2023-05-09T12:14:04.967Z,422.00
2023-05-09T12:15:04.909Z,425.00
2023-05-09T12:16:04.778Z,425.00
2023-05-09T12:17:04.824Z,420.00
2023-05-09T12:18:05.099Z,423.00
2023-05-09T12:19:05.129Z,427.00
2023-05-09T12:20:05.208Z,423.00
2023-05-09T12:21:05.351Z,421.00
2023-05-09T12:22:05.504Z,416.00
2023-05-09T12:23:05.530Z,425.00
2023-05-09T12:24:05.716Z,427.00
2023-05-09T12:25:05.812Z,430.00
2023-05-09T12:26:05.836Z,430.00
2023-05-09T12:27:06.020Z,409.00
2023-05-09T12:28:06.088Z,423.00